Port Barrington, Illinois
Current Conditions -  °F | °C
As of 11:52 PM on Tuesday 27 Jan 2015 (Local Time) from KPWK Reporting Station
Clear Clear  
Wind Chill: 23°   Ceiling: Unl
Heat Index: 23°   Visibility: 10mi
Dew Point: 18°   Wind: 0mph
Humidity: 81%   Direction: NA
Pressure: 30.28"   Gusts: NA
Location:  42.1512°N, 88.1636°W
Report Text: KPWK 280552Z AUTO 00000KT 10SM CLR M05/M08 A3028 RMK AO2 SLP263 T10501078 11033 21072 410061072 50012
Loading
Personal Weather Stations






























Interactive Weather Map New forecast layout! Learn more

10-Day Weather Forecast

Advertisements
Track Severe Weather on mobile